Time;durP1;ratioP1;P1;durP2;ratioP2;P2;SDS_P1;SDS_P2;PMS_P1;PMS_P2;Temp;Humidity;BMP_temperature;BMP_pressure;BME280_temperature;BME280_humidity;BME280_pressure;Samples;Min_cycle;Max_cycle;Signal;HPM_P1;HPM_P2
2023/12/13 00:02:08;;;;;;;2.63;0.93;;;8.60;99.90;;;;;;5092066;28;20034;-56
2023/12/13 00:04:33;;;;;;;2.50;0.70;;;8.60;99.90;;;;;;5092118;28;20111;-56
2023/12/13 00:06:59;;;;;;;2.53;0.80;;;8.60;99.90;;;;;;5091937;28;20511;-52
2023/12/13 00:09:24;;;;;;;5.27;0.63;;;8.60;99.90;;;;;;5091920;28;20039;-56
2023/12/13 00:11:50;;;;;;;1.97;0.57;;;8.60;99.90;;;;;;5091738;28;20506;-56
2023/12/13 00:14:17;;;;;;;1.53;0.70;;;8.50;99.90;;;;;;5091833;28;20028;-56
2023/12/13 00:16:43;;;;;;;0.97;0.60;;;8.50;99.90;;;;;;5091796;28;20387;-55
2023/12/13 00:19:08;;;;;;;0.60;0.40;;;8.40;99.90;;;;;;5091802;28;20024;-56
2023/12/13 00:21:35;;;;;;;0.70;0.47;;;8.40;99.90;;;;;;5091857;28;20016;-56
2023/12/13 00:24:01;;;;;;;2.00;0.70;;;8.40;99.90;;;;;;5091825;28;20549;-56
2023/12/13 00:26:27;;;;;;;2.53;0.60;;;8.40;99.90;;;;;;5091695;28;20027;-54
2023/12/13 00:28:52;;;;;;;1.13;0.40;;;8.30;99.90;;;;;;5092415;28;20081;-55
2023/12/13 00:31:18;;;;;;;2.73;0.70;;;8.30;99.90;;;;;;5095947;28;20020;-56
2023/12/13 00:33:44;;;;;;;1.87;0.60;;;8.30;99.90;;;;;;5095953;28;20024;-56
2023/12/13 00:36:10;;;;;;;1.10;0.50;;;8.30;99.90;;;;;;5095941;28;20433;-56
2023/12/13 00:38:35;;;;;;;1.33;0.60;;;8.30;99.90;;;;;;5095836;28;20107;-55
2023/12/13 00:41:01;;;;;;;1.10;0.40;;;8.20;99.90;;;;;;5094464;28;20085;-56
2023/12/13 00:43:26;;;;;;;0.87;0.53;;;8.10;99.90;;;;;;5094445;28;20032;-55
2023/12/13 00:45:52;;;;;;;1.70;0.47;;;8.10;99.90;;;;;;5095676;28;20024;-56
2023/12/13 00:48:18;;;;;;;2.57;0.50;;;8.20;99.90;;;;;;5095778;28;20661;-55
2023/12/13 00:50:44;;;;;;;1.13;0.40;;;8.10;99.90;;;;;;5095580;28;20063;-55
2023/12/13 00:53:10;;;;;;;1.30;0.60;;;8.00;99.90;;;;;;5095531;28;20062;-52
2023/12/13 00:55:35;;;;;;;0.30;0.20;;;7.90;99.90;;;;;;5095417;28;20487;-53
2023/12/13 00:58:01;;;;;;;2.90;0.80;;;7.90;99.90;;;;;;5095455;28;20028;-56
2023/12/13 01:00:27;;;;;;;1.30;0.53;;;7.90;99.90;;;;;;5095382;28;20024;-55
2023/12/13 01:02:52;;;;;;;1.13;0.60;;;7.90;99.90;;;;;;5095440;28;20059;-55
2023/12/13 01:05:18;;;;;;;1.00;0.40;;;7.80;99.90;;;;;;5095435;28;20503;-56
2023/12/13 01:07:44;;;;;;;2.53;0.63;;;7.80;99.90;;;;;;5095243;28;20507;-56
2023/12/13 01:10:10;;;;;;;1.80;0.40;;;7.90;99.90;;;;;;5095149;28;20040;-55
2023/12/13 01:12:35;;;;;;;2.30;0.50;;;7.90;99.90;;;;;;5095072;28;20119;-55
2023/12/13 01:15:01;;;;;;;3.40;0.50;;;7.90;99.90;;;;;;5095270;28;20027;-55
2023/12/13 01:17:27;;;;;;;2.17;0.70;;;7.90;99.90;;;;;;5095265;28;20141;-56
2023/12/13 01:19:53;;;;;;;2.07;0.43;;;7.90;99.90;;;;;;5095065;28;20516;-56
2023/12/13 01:22:19;;;;;;;0.80;0.50;;;7.80;99.90;;;;;;5095026;28;20055;-55
2023/12/13 01:24:45;;;;;;;3.03;0.73;;;7.90;99.90;;;;;;5094987;28;20473;-56
2023/12/13 01:27:11;;;;;;;2.67;0.80;;;7.90;99.90;;;;;;5094962;28;20085;-56
2023/12/13 01:29:36;;;;;;;2.93;0.60;;;7.90;99.90;;;;;;5093585;28;20544;-56
2023/12/13 01:32:02;;;;;;;2.50;0.60;;;7.90;99.90;;;;;;5094737;28;20036;-55
2023/12/13 01:34:29;;;;;;;1.13;0.43;;;7.90;99.90;;;;;;5094871;28;20032;-55
2023/12/13 01:36:55;;;;;;;4.97;0.93;;;7.90;99.90;;;;;;5094685;28;20426;-56
2023/12/13 01:39:20;;;;;;;1.60;0.60;;;7.90;99.90;;;;;;5094525;28;20112;-56
2023/12/13 01:41:46;;;;;;;3.23;0.80;;;8.00;99.90;;;;;;5094043;28;20385;-53
2023/12/13 01:44:11;;;;;;;3.53;0.60;;;8.00;99.90;;;;;;5094718;28;20024;-55
2023/12/13 01:46:38;;;;;;;2.43;0.63;;;7.90;99.90;;;;;;5094505;28;20429;-55
2023/12/13 01:49:06;;;;;;;2.17;0.60;;;7.90;99.90;;;;;;5094580;28;20028;-56
2023/12/13 01:51:34;;;;;;;3.93;1.23;;;7.80;99.90;;;;;;5094519;28;20031;-56
2023/12/13 01:54:02;;;;;;;1.37;0.70;;;7.90;99.90;;;;;;5094356;28;20036;-55
2023/12/13 01:56:29;;;;;;;2.57;0.70;;;7.90;99.90;;;;;;5094240;28;20028;-56
2023/12/13 01:58:55;;;;;;;4.73;1.00;;;8.00;99.90;;;;;;5094395;28;20097;-56
2023/12/13 02:01:20;;;;;;;4.43;0.80;;;7.90;99.90;;;;;;5094284;28;20496;-56
2023/12/13 02:03:46;;;;;;;1.63;0.70;;;7.90;99.90;;;;;;5092963;28;20397;-56
2023/12/13 02:06:12;;;;;;;8.17;0.87;;;7.90;99.90;;;;;;5094286;28;20110;-56
2023/12/13 02:08:38;;;;;;;4.77;0.90;;;7.90;99.90;;;;;;5094174;28;20465;-55
2023/12/13 02:11:04;;;;;;;3.77;0.70;;;8.00;99.90;;;;;;5093838;28;20047;-53
2023/12/13 02:13:29;;;;;;;3.50;0.60;;;7.90;99.90;;;;;;5094082;28;20036;-55
2023/12/13 02:15:55;;;;;;;6.90;1.30;;;7.90;99.90;;;;;;5093964;28;20465;-55
2023/12/13 02:18:22;;;;;;;2.47;1.00;;;7.90;99.90;;;;;;5093945;28;20055;-53
2023/12/13 02:20:50;;;;;;;4.27;0.80;;;7.90;99.90;;;;;;5093962;28;20044;-55
2023/12/13 02:23:15;;;;;;;5.33;0.83;;;7.90;99.90;;;;;;5093832;28;20043;-51
2023/12/13 02:26:05;;;;;;;5.13;0.87;;;7.90;99.90;;;;;;5093570;28;20039;-52
2023/12/13 02:28:31;;;;;;;1.40;0.60;;;7.90;99.90;;;;;;5093756;28;20032;-54
2023/12/13 02:30:58;;;;;;;2.90;0.70;;;8.00;99.90;;;;;;5093794;28;20115;-54
2023/12/13 02:33:28;;;;;;;1.77;0.90;;;7.90;99.90;;;;;;5093580;28;20553;-56
2023/12/13 02:35:56;;;;;;;3.70;1.00;;;8.00;99.90;;;;;;5093474;28;20028;-54
2023/12/13 02:38:21;;;;;;;4.73;0.80;;;8.00;99.90;;;;;;5093521;28;20043;-55
2023/12/13 02:40:47;;;;;;;2.63;0.73;;;7.90;99.90;;;;;;5093391;28;20028;-55
2023/12/13 02:43:13;;;;;;;1.53;0.60;;;7.90;99.90;;;;;;5093523;28;20024;-51
2023/12/13 02:45:38;;;;;;;4.43;1.07;;;7.80;99.90;;;;;;5093368;28;20085;-54
2023/12/13 02:48:04;;;;;;;1.97;0.67;;;7.90;99.90;;;;;;5093416;28;20066;-54
2023/12/13 02:50:30;;;;;;;1.80;0.80;;;7.90;99.90;;;;;;5093219;28;20040;-55
2023/12/13 02:52:56;;;;;;;2.37;0.70;;;7.90;99.90;;;;;;5092161;28;20051;-53
2023/12/13 02:55:21;;;;;;;2.93;0.73;;;7.90;99.90;;;;;;5093328;28;20043;-55
2023/12/13 02:57:47;;;;;;;1.73;0.70;;;7.90;99.90;;;;;;5093043;28;20055;-56
2023/12/13 03:00:13;;;;;;;2.87;1.03;;;7.90;99.90;;;;;;5091662;28;20047;-56
2023/12/13 03:02:40;;;;;;;0.97;0.60;;;8.00;99.90;;;;;;5091731;28;20367;-53
2023/12/13 03:05:06;;;;;;;2.67;0.87;;;8.00;99.90;;;;;;5092977;28;20032;-56
2023/12/13 03:07:32;;;;;;;4.50;0.90;;;8.00;99.90;;;;;;5092733;28;20032;-54
2023/12/13 03:09:57;;;;;;;2.73;0.80;;;8.00;99.90;;;;;;5092808;28;20046;-53
2023/12/13 03:12:23;;;;;;;2.67;0.80;;;8.00;99.90;;;;;;5092577;28;20032;-53
2023/12/13 03:14:48;;;;;;;3.13;1.00;;;8.00;99.90;;;;;;5092815;28;20037;-54
2023/12/13 03:17:14;;;;;;;4.07;0.90;;;8.00;99.90;;;;;;5092731;28;20081;-54
2023/12/13 03:19:40;;;;;;;4.10;0.70;;;8.00;99.90;;;;;;5092569;28;20055;-55
2023/12/13 03:22:06;;;;;;;4.13;0.60;;;8.00;99.90;;;;;;5092625;28;20035;-52
2023/12/13 03:24:32;;;;;;;4.10;0.97;;;8.10;99.90;;;;;;5092576;28;20038;-55
2023/12/13 03:26:57;;;;;;;5.97;1.20;;;8.10;99.90;;;;;;5092487;28;20119;-51
2023/12/13 03:29:23;;;;;;;2.23;0.90;;;8.10;99.90;;;;;;5092497;28;20024;-53
2023/12/13 03:31:49;;;;;;;1.17;0.67;;;8.10;99.90;;;;;;5092423;28;20024;-56
2023/12/13 03:34:14;;;;;;;6.30;0.70;;;8.10;99.90;;;;;;5092480;28;20055;-56
2023/12/13 03:36:40;;;;;;;3.07;1.00;;;8.20;99.90;;;;;;5092337;28;20111;-55
2023/12/13 03:39:07;;;;;;;4.33;0.87;;;8.10;99.90;;;;;;5092328;28;20047;-55
2023/12/13 03:41:33;;;;;;;3.37;0.70;;;8.20;99.90;;;;;;5092335;28;20031;-56
2023/12/13 03:43:59;;;;;;;4.83;1.00;;;8.10;99.90;;;;;;5091109;28;20107;-55
2023/12/13 03:46:24;;;;;;;7.97;1.30;;;8.20;99.90;;;;;;5092159;28;20105;-54
2023/12/13 03:48:50;;;;;;;4.00;1.20;;;8.20;99.90;;;;;;5092102;28;20157;-53
2023/12/13 03:51:16;;;;;;;5.37;0.80;;;8.20;99.90;;;;;;5092041;28;20036;-55
2023/12/13 03:53:42;;;;;;;5.90;0.90;;;8.30;99.90;;;;;;5092160;28;20039;-53
2023/12/13 03:56:09;;;;;;;5.47;0.90;;;8.20;99.90;;;;;;5092031;28;20043;-53
2023/12/13 03:58:35;;;;;;;4.23;0.83;;;8.20;99.90;;;;;;5091994;28;20577;-56
2023/12/13 04:01:01;;;;;;;2.60;0.70;;;8.10;99.90;;;;;;5092069;28;20024;-56
2023/12/13 04:03:27;;;;;;;4.53;0.77;;;8.20;99.90;;;;;;5091758;28;20024;-56
2023/12/13 04:05:52;;;;;;;5.03;0.93;;;8.20;99.90;;;;;;5091827;28;20062;-54
2023/12/13 04:08:18;;;;;;;5.70;0.87;;;8.10;99.90;;;;;;5092062;28;20310;-53
2023/12/13 04:10:43;;;;;;;6.40;1.20;;;8.10;99.90;;;;;;5091815;28;20039;-55
2023/12/13 04:13:09;;;;;;;7.30;1.40;;;8.10;99.90;;;;;;5091738;28;20040;-56
2023/12/13 04:15:36;;;;;;;3.57;0.90;;;8.20;99.90;;;;;;5092178;28;20052;-54
2023/12/13 04:18:01;;;;;;;1.37;0.90;;;8.20;99.90;;;;;;5091623;28;20052;-54
2023/12/13 04:20:27;;;;;;;2.60;0.90;;;8.30;99.90;;;;;;5090518;28;20036;-56
2023/12/13 04:22:53;;;;;;;7.20;0.90;;;8.30;99.90;;;;;;5091891;28;20340;-52
2023/12/13 04:25:18;;;;;;;5.70;1.00;;;8.40;99.90;;;;;;5091800;28;20489;-54
2023/12/13 04:27:45;;;;;;;6.33;0.83;;;8.40;99.90;;;;;;5091644;28;20042;-55
2023/12/13 04:30:11;;;;;;;4.13;1.03;;;8.40;99.90;;;;;;5091697;28;20074;-54
2023/12/13 04:32:40;;;;;;;5.07;0.80;;;8.40;99.90;;;;;;5091720;28;20480;-56
2023/12/13 04:35:07;;;;;;;5.57;1.13;;;8.40;99.90;;;;;;5091830;28;20028;-56
2023/12/13 04:37:34;;;;;;;4.83;1.93;;;8.40;99.90;;;;;;5091616;28;20024;-55
2023/12/13 04:40:00;;;;;;;5.53;1.20;;;8.40;99.90;;;;;;5091737;28;20138;-55
2023/12/13 04:42:26;;;;;;;4.13;0.70;;;8.50;99.90;;;;;;5091705;28;20482;-54
2023/12/13 04:44:53;;;;;;;3.67;1.20;;;8.50;99.90;;;;;;5091702;28;20468;-52
2023/12/13 04:47:18;;;;;;;4.03;0.90;;;8.50;99.90;;;;;;5091549;28;20047;-56
2023/12/13 04:49:44;;;;;;;1.47;0.93;;;8.50;99.90;;;;;;5091428;28;20032;-55
2023/12/13 04:52:10;;;;;;;7.83;1.03;;;8.50;99.90;;;;;;5091504;28;20050;-54
2023/12/13 04:54:38;;;;;;;7.43;1.40;;;8.50;99.90;;;;;;5091804;28;20103;-54
2023/12/13 04:57:04;;;;;;;5.47;1.08;;;8.50;99.90;;;;;;5091460;28;20035;-55
2023/12/13 04:59:30;;;;;;;7.50;1.97;;;8.60;99.90;;;;;;5091456;28;20121;-53
2023/12/13 05:01:56;;;;;;;6.57;1.50;;;8.60;99.90;;;;;;5091417;28;20032;-53
2023/12/13 05:04:22;;;;;;;5.10;1.23;;;8.50;99.90;;;;;;5091446;28;20025;-56
2023/12/13 05:06:47;;;;;;;3.70;1.07;;;8.50;99.90;;;;;;5091351;28;20384;-56
2023/12/13 05:09:13;;;;;;;4.27;1.20;;;8.60;99.90;;;;;;5091351;28;20035;-55
2023/12/13 05:11:39;;;;;;;6.73;1.27;;;8.50;99.90;;;;;;5091374;28;20028;-56
2023/12/13 05:14:04;;;;;;;5.10;0.90;;;8.50;99.90;;;;;;5091303;28;20035;-56
2023/12/13 05:16:30;;;;;;;4.87;1.20;;;8.60;99.90;;;;;;5092716;28;20036;-52
2023/12/13 05:18:55;;;;;;;3.30;1.10;;;8.60;99.90;;;;;;5095007;28;20373;-53
2023/12/13 05:21:21;;;;;;;7.07;1.17;;;8.60;99.90;;;;;;5095008;28;20024;-55
2023/12/13 05:23:47;;;;;;;2.33;0.90;;;8.50;99.90;;;;;;5095054;28;20032;-53
2023/12/13 05:26:13;;;;;;;5.50;1.60;;;8.50;99.90;;;;;;5094924;28;20472;-53
2023/12/13 05:28:39;;;;;;;5.27;1.00;;;8.60;99.90;;;;;;5094862;28;20031;-53
2023/12/13 05:31:04;;;;;;;3.97;1.00;;;8.60;99.90;;;;;;5094703;28;20599;-55
2023/12/13 05:33:30;;;;;;;4.43;1.20;;;8.60;99.90;;;;;;5094746;28;20032;-55
2023/12/13 05:35:55;;;;;;;7.10;1.27;;;8.60;99.90;;;;;;5094730;28;20380;-56
2023/12/13 05:38:21;;;;;;;5.10;1.10;;;8.60;99.90;;;;;;5094746;28;20100;-56
2023/12/13 05:40:47;;;;;;;4.20;1.10;;;8.60;99.90;;;;;;5094703;28;20032;-55
2023/12/13 05:43:12;;;;;;;5.73;1.60;;;8.70;99.90;;;;;;5094677;28;20077;-55
2023/12/13 05:45:38;;;;;;;6.70;1.50;;;8.60;99.90;;;;;;5094398;28;20035;-53
2023/12/13 05:48:05;;;;;;;9.83;1.83;;;8.60;99.90;;;;;;5094465;28;20039;-56
2023/12/13 05:50:30;;;;;;;3.97;1.00;;;8.60;99.90;;;;;;5094446;28;20040;-56
2023/12/13 05:52:56;;;;;;;5.33;1.73;;;8.60;99.90;;;;;;5094367;28;20039;-54
2023/12/13 05:55:22;;;;;;;6.13;1.17;;;8.50;99.90;;;;;;5094388;28;20106;-56
2023/12/13 05:57:47;;;;;;;9.63;1.53;;;8.50;99.90;;;;;;5094217;28;20035;-53
2023/12/13 06:00:14;;;;;;;4.93;1.13;;;8.60;99.90;;;;;;5094622;28;20468;-53
2023/12/13 06:02:40;;;;;;;4.23;1.43;;;8.60;99.90;;;;;;5094254;28;20036;-55
2023/12/13 06:05:06;;;;;;;5.43;1.20;;;8.60;99.90;;;;;;5094277;28;20032;-56
2023/12/13 06:07:32;;;;;;;5.97;1.43;;;8.70;99.90;;;;;;5092721;28;20036;-56
2023/12/13 06:09:58;;;;;;;12.33;3.63;;;8.60;99.90;;;;;;5094128;28;20024;-56
2023/12/13 06:12:24;;;;;;;13.57;4.53;;;8.60;99.90;;;;;;5092660;28;20032;-53
2023/12/13 06:14:49;;;;;;;11.43;2.70;;;8.50;99.90;;;;;;5093990;28;20111;-50
2023/12/13 06:17:15;;;;;;;5.90;1.53;;;8.40;99.90;;;;;;5093815;28;20030;-52
2023/12/13 06:19:41;;;;;;;8.20;1.60;;;8.40;99.90;;;;;;5093834;28;20028;-54
2023/12/13 06:22:07;;;;;;;7.67;1.40;;;8.50;99.90;;;;;;5093931;28;20024;-52
2023/12/13 06:24:33;;;;;;;5.27;1.70;;;8.40;99.90;;;;;;5093858;28;20024;-50
2023/12/13 06:26:59;;;;;;;6.33;1.40;;;8.50;99.90;;;;;;5093440;28;20110;-52
2023/12/13 06:29:25;;;;;;;10.57;1.70;;;8.50;99.90;;;;;;5093562;28;20036;-54
2023/12/13 06:31:50;;;;;;;9.50;2.07;;;8.60;99.90;;;;;;5093479;28;20024;-49
2023/12/13 06:34:16;;;;;;;7.10;1.57;;;8.60;99.90;;;;;;5093855;28;20043;-56
2023/12/13 06:36:42;;;;;;;7.73;1.47;;;8.60;99.90;;;;;;5093456;28;20055;-54
2023/12/13 06:39:11;;;;;;;5.70;2.03;;;8.60;99.90;;;;;;5093640;28;20024;-51
2023/12/13 06:41:39;;;;;;;7.80;1.45;;;8.60;99.90;;;;;;5093516;28;20036;-53
2023/12/13 06:44:06;;;;;;;9.68;1.80;;;8.50;99.90;;;;;;5093543;28;20036;-51
2023/12/13 06:46:31;;;;;;;6.80;1.40;;;8.50;99.90;;;;;;5093321;28;20028;-54
2023/12/13 06:48:57;;;;;;;4.93;1.90;;;8.60;99.90;;;;;;5093297;28;20028;-54
2023/12/13 06:51:23;;;;;;;7.67;2.80;;;8.60;99.90;;;;;;5093305;28;20069;-54
2023/12/13 06:53:49;;;;;;;4.47;1.97;;;8.70;99.90;;;;;;5093186;28;20119;-55
2023/12/13 06:56:14;;;;;;;8.60;2.13;;;8.70;99.90;;;;;;5093138;28;20031;-55
2023/12/13 06:58:40;;;;;;;7.57;1.87;;;8.60;99.90;;;;;;5092978;28;20433;-52
2023/12/13 07:01:05;;;;;;;6.77;1.80;;;8.60;99.90;;;;;;5093009;28;20039;-55
2023/12/13 07:03:31;;;;;;;9.43;2.13;;;8.60;99.90;;;;;;5093310;28;20028;-55
2023/12/13 07:05:57;;;;;;;6.50;1.43;;;8.60;99.90;;;;;;5092983;28;20089;-54
2023/12/13 07:08:22;;;;;;;10.10;3.07;;;8.60;99.90;;;;;;5092931;28;20020;-50
2023/12/13 07:10:48;;;;;;;8.27;1.60;;;8.60;99.90;;;;;;5092894;28;20443;-51
2023/12/13 07:13:14;;;;;;;6.53;1.77;;;8.50;99.90;;;;;;5092675;28;20488;-52
2023/12/13 07:15:39;;;;;;;10.73;1.97;;;8.50;99.90;;;;;;5092715;28;20028;-55
2023/12/13 07:18:05;;;;;;;7.37;2.00;;;8.60;99.90;;;;;;5092748;28;20039;-55
2023/12/13 07:20:31;;;;;;;10.37;2.43;;;8.60;99.90;;;;;;5092586;28;20093;-53
2023/12/13 07:22:57;;;;;;;13.33;2.17;;;8.60;99.90;;;;;;5092928;28;20032;-52
2023/12/13 07:25:23;;;;;;;4.50;1.43;;;8.70;99.90;;;;;;5092693;28;20024;-52
2023/12/13 07:27:48;;;;;;;7.33;1.77;;;8.70;99.90;;;;;;5092395;28;20507;-51
2023/12/13 07:30:14;;;;;;;7.13;2.00;;;8.60;99.90;;;;;;5092525;28;20110;-55
2023/12/13 07:32:41;;;;;;;9.10;2.17;;;8.70;99.90;;;;;;5092482;28;20407;-56
2023/12/13 07:35:07;;;;;;;5.40;1.70;;;8.70;99.90;;;;;;5092488;28;20110;-53
2023/12/13 07:37:33;;;;;;;5.63;1.70;;;8.70;99.90;;;;;;5091956;28;20038;-55
2023/12/13 07:39:59;;;;;;;4.10;1.73;;;8.70;99.90;;;;;;5092148;28;20024;-55
2023/12/13 07:42:24;;;;;;;8.53;1.43;;;8.70;99.90;;;;;;5092237;28;20051;-54
2023/12/13 07:44:50;;;;;;;6.00;1.80;;;8.70;99.90;;;;;;5092135;28;20036;-54
2023/12/13 07:47:15;;;;;;;7.37;1.87;;;8.60;99.90;;;;;;5092129;28;20115;-52
2023/12/13 07:49:41;;;;;;;6.70;1.70;;;8.60;99.90;;;;;;5092157;28;20032;-55
2023/12/13 07:52:06;;;;;;;6.80;2.30;;;8.60;99.90;;;;;;5092123;28;20035;-55
2023/12/13 07:54:33;;;;;;;5.07;1.53;;;8.60;99.90;;;;;;5092145;28;20031;-54
2023/12/13 07:56:59;;;;;;;7.00;1.67;;;8.60;99.90;;;;;;5091966;28;20103;-55
2023/12/13 07:59:24;;;;;;;10.13;2.23;;;8.60;99.90;;;;;;5092114;28;20119;-55
2023/12/13 08:01:50;;;;;;;6.53;1.70;;;8.60;99.90;;;;;;5092060;28;20028;-52
2023/12/13 08:04:16;;;;;;;5.80;1.50;;;8.60;99.90;;;;;;5092072;28;20043;-52
2023/12/13 08:06:42;;;;;;;6.93;1.90;;;8.60;99.90;;;;;;5091999;28;20028;-55
2023/12/13 08:09:11;;;;;;;8.07;1.80;;;8.60;99.90;;;;;;5091978;28;20054;-55
2023/12/13 08:11:37;;;;;;;8.95;1.83;;;8.60;99.90;;;;;;5091760;28;20036;-54
2023/12/13 08:14:03;;;;;;;6.60;1.83;;;8.60;99.90;;;;;;5092158;28;20039;-54
2023/12/13 08:16:29;;;;;;;6.00;1.80;;;8.60;99.90;;;;;;5091865;28;20028;-53
2023/12/13 08:18:55;;;;;;;4.37;1.40;;;8.70;99.90;;;;;;5091819;28;20028;-56
2023/12/13 08:21:24;;;;;;;7.83;1.93;;;8.60;99.90;;;;;;5091918;28;20480;-53
2023/12/13 08:23:50;;;;;;;7.28;1.48;;;8.60;99.90;;;;;;5091905;28;20115;-52
2023/12/13 08:26:16;;;;;;;4.77;1.60;;;8.60;99.90;;;;;;5091718;28;20054;-55
2023/12/13 08:28:42;;;;;;;6.47;1.70;;;8.50;99.90;;;;;;5091683;28;20039;-56
2023/12/13 08:31:10;;;;;;;7.83;2.20;;;8.50;99.90;;;;;;5091749;28;20110;-51
2023/12/13 08:33:35;;;;;;;6.93;1.90;;;8.60;99.90;;;;;;5091780;28;20088;-53
2023/12/13 08:36:04;;;;;;;7.13;2.43;;;8.70;99.90;;;;;;5091635;28;20024;-56
2023/12/13 08:38:30;;;;;;;10.20;2.60;;;8.70;99.90;;;;;;5091536;28;20043;-51
2023/12/13 08:40:55;;;;;;;6.23;1.60;;;8.70;99.90;;;;;;5091541;28;20024;-56
2023/12/13 08:43:21;;;;;;;6.87;1.93;;;8.80;99.90;;;;;;5091694;28;20035;-55
2023/12/13 08:45:46;;;;;;;7.57;1.63;;;8.90;99.90;;;;;;5090263;28;20416;-51
2023/12/13 08:48:12;;;;;;;8.40;1.77;;;8.90;99.90;;;;;;5091734;28;20111;-55
2023/12/13 08:50:38;;;;;;;6.20;2.07;;;9.00;99.90;;;;;;5095150;28;20039;-54
2023/12/13 08:53:03;;;;;;;4.90;1.70;;;9.00;99.90;;;;;;5095391;28;20078;-50
2023/12/13 08:55:29;;;;;;;4.70;1.97;;;9.10;99.90;;;;;;5095561;28;20028;-50
2023/12/13 08:57:55;;;;;;;4.93;1.50;;;9.10;99.90;;;;;;5095403;28;20030;-50
2023/12/13 09:00:20;;;;;;;6.37;2.00;;;9.10;99.90;;;;;;5093968;28;20484;-53
2023/12/13 09:02:46;;;;;;;3.67;1.50;;;9.10;99.90;;;;;;5095433;28;20480;-52
2023/12/13 09:05:13;;;;;;;5.33;1.97;;;9.10;99.90;;;;;;5095426;28;20036;-54
2023/12/13 09:07:39;;;;;;;10.40;2.03;;;9.20;99.90;;;;;;5095101;28;20422;-50
2023/12/13 09:10:08;;;;;;;10.97;2.57;;;9.10;99.90;;;;;;5095349;28;20058;-52
2023/12/13 09:12:33;;;;;;;5.78;2.20;;;9.10;99.90;;;;;;5095072;28;20046;-54
2023/12/13 09:14:59;;;;;;;7.90;1.80;;;9.20;99.90;;;;;;5095556;28;20483;-54
2023/12/13 09:17:25;;;;;;;7.57;1.43;;;9.20;99.90;;;;;;5095017;28;20362;-55
2023/12/13 09:19:50;;;;;;;8.07;1.97;;;9.10;99.90;;;;;;5095046;28;20051;-55
2023/12/13 09:22:17;;;;;;;2.93;1.67;;;9.10;99.90;;;;;;5095031;28;20374;-52
2023/12/13 09:24:43;;;;;;;6.17;1.60;;;9.10;99.90;;;;;;5095035;28;20032;-54
2023/12/13 09:27:09;;;;;;;7.80;1.80;;;9.00;99.90;;;;;;5095277;28;20035;-50
2023/12/13 09:29:34;;;;;;;9.27;2.33;;;9.00;99.90;;;;;;5094864;28;20369;-54
2023/12/13 09:32:00;;;;;;;6.80;2.40;;;8.90;99.90;;;;;;5094816;28;20050;-54
2023/12/13 09:34:26;;;;;;;9.97;2.23;;;8.80;99.90;;;;;;5094832;28;20034;-55
2023/12/13 09:36:52;;;;;;;7.57;2.60;;;8.80;99.90;;;;;;5094647;28;20392;-52
2023/12/13 09:39:18;;;;;;;8.63;1.93;;;8.80;99.90;;;;;;5094748;28;20103;-52
2023/12/13 09:41:54;;;;;;;7.67;2.60;;;8.80;99.90;;;;;;5094693;28;20016;-52
2023/12/13 09:44:22;;;;;;;7.27;2.17;;;8.90;99.90;;;;;;5094663;28;20028;-52
2023/12/13 09:46:49;;;;;;;8.93;2.33;;;8.90;99.90;;;;;;5094529;28;20060;-55
2023/12/13 09:49:15;;;;;;;8.57;2.10;;;9.00;99.90;;;;;;5094401;28;20443;-54
2023/12/13 09:51:44;;;;;;;4.63;1.83;;;9.10;99.90;;;;;;5094520;28;20116;-53
2023/12/13 09:54:10;;;;;;;8.70;2.03;;;9.10;99.90;;;;;;5094487;28;20711;-56
2023/12/13 09:56:35;;;;;;;9.57;2.67;;;9.10;99.90;;;;;;5094403;28;20115;-54
2023/12/13 09:59:01;;;;;;;6.17;1.87;;;9.20;99.90;;;;;;5094273;28;20024;-51
2023/12/13 10:01:26;;;;;;;7.47;2.17;;;9.20;99.90;;;;;;5093797;28;20027;-50
2023/12/13 10:03:52;;;;;;;7.00;1.93;;;9.30;99.90;;;;;;5094216;28;20392;-54
2023/12/13 10:06:18;;;;;;;4.90;1.93;;;9.30;99.90;;;;;;5094180;28;20031;-53
2023/12/13 10:08:53;;;;;;;8.43;1.93;;;9.30;99.90;;;;;;5094093;28;20478;-51
2023/12/13 10:11:18;;;;;;;10.30;2.97;;;9.40;99.90;;;;;;5094045;28;20032;-52
2023/12/13 10:13:44;;;;;;;7.23;1.70;;;9.40;99.90;;;;;;5093942;28;20073;-52
2023/12/13 10:16:11;;;;;;;6.33;2.20;;;9.50;99.90;;;;;;5093988;28;20084;-55
2023/12/13 10:18:40;;;;;;;7.73;2.33;;;9.60;99.90;;;;;;5094027;28;20032;-55
2023/12/13 10:21:06;;;;;;;;;;;9.50;99.90;;;;;;5094464;28;20473;-53
2023/12/13 10:23:34;;;;;;;7.43;2.00;;;9.60;99.90;;;;;;5075686;28;19923;-53
2023/12/13 10:26:00;;;;;;;6.13;2.20;;;9.50;99.90;;;;;;5093726;28;20028;-54
2023/12/13 10:28:26;;;;;;;7.40;1.90;;;9.50;99.90;;;;;;5093663;28;20102;-53
2023/12/13 10:30:52;;;;;;;5.70;1.50;;;9.50;99.90;;;;;;5093762;28;20040;-56
2023/12/13 10:33:17;;;;;;;7.63;1.70;;;9.40;99.90;;;;;;5093679;28;20404;-56
2023/12/13 10:35:43;;;;;;;8.47;2.30;;;9.40;99.90;;;;;;5093566;28;20040;-55
2023/12/13 10:38:14;;;;;;;4.10;1.70;;;9.40;99.90;;;;;;5093683;28;20020;-51
2023/12/13 10:40:41;;;;;;;7.80;1.57;;;9.40;99.90;;;;;;5093441;28;20047;-53
2023/12/13 10:43:10;;;;;;;5.90;1.30;;;9.30;99.90;;;;;;5093477;28;20028;-55
2023/12/13 10:45:47;;;;;;;6.43;1.77;;;9.30;99.90;;;;;;5093480;28;20054;-55
2023/12/13 10:48:16;;;;;;;4.87;1.20;;;9.30;99.90;;;;;;5093443;28;20040;-53
2023/12/13 10:50:44;;;;;;;3.60;1.10;;;9.40;99.90;;;;;;5093193;28;20221;-56
2023/12/13 10:53:11;;;;;;;5.40;1.60;;;9.30;99.90;;;;;;5093232;28;20119;-54
2023/12/13 10:55:39;;;;;;;11.90;1.93;;;9.30;99.90;;;;;;5093289;28;20024;-56
2023/12/13 10:58:05;;;;;;;8.80;1.83;;;9.30;99.90;;;;;;5093062;28;20028;-53
2023/12/13 11:00:32;;;;;;;7.90;1.70;;;9.40;99.90;;;;;;5093002;28;20047;-51
2023/12/13 11:03:09;;;;;;;3.37;1.50;;;9.50;99.90;;;;;;5093093;28;20075;-54
2023/12/13 11:05:35;;;;;;;11.93;1.60;;;9.50;99.90;;;;;;5093234;28;20047;-52
2023/12/13 11:08:00;;;;;;;7.40;1.30;;;9.60;99.90;;;;;;5092829;28;20480;-55
2023/12/13 11:10:26;;;;;;;3.33;1.30;;;9.60;99.90;;;;;;5092832;28;20042;-51
2023/12/13 11:12:52;;;;;;;5.87;1.60;;;9.60;99.90;;;;;;5091786;28;20028;-55
2023/12/13 11:15:19;;;;;;;2.43;0.93;;;9.70;99.90;;;;;;5091700;28;20127;-55
2023/12/13 11:17:54;;;;;;;5.53;1.47;;;9.60;99.90;;;;;;5092681;28;20078;-53
2023/12/13 11:20:20;;;;;;;4.20;1.10;;;9.60;99.90;;;;;;5092693;28;20465;-55
2023/12/13 11:22:48;;;;;;;5.27;0.90;;;9.70;99.90;;;;;;5092787;28;20032;-55
2023/12/13 11:25:15;;;;;;;7.67;1.00;;;9.70;99.90;;;;;;5092627;28;20039;-55
2023/12/13 11:28:06;;;;;;;1.87;0.80;;;9.60;99.90;;;;;;5092503;28;20437;-56
2023/12/13 11:30:33;;;;;;;2.10;0.63;;;9.60;99.90;;;;;;5088468;28;20044;-55
2023/12/13 11:32:58;;;;;;;4.20;0.90;;;9.60;99.90;;;;;;5092460;28;20129;-55
2023/12/13 11:35:24;;;;;;;2.60;1.00;;;9.60;99.90;;;;;;5092648;28;20111;-55
2023/12/13 11:37:54;;;;;;;2.00;0.60;;;9.60;99.90;;;;;;5092309;28;20098;-51
2023/12/13 11:40:21;;;;;;;1.97;0.70;;;9.50;99.90;;;;;;5092242;28;20032;-52
2023/12/13 11:42:47;;;;;;;1.10;0.70;;;9.50;99.90;;;;;;5092500;28;20106;-54
2023/12/13 11:45:13;;;;;;;2.73;1.40;;;9.50;99.90;;;;;;5092392;28;20111;-54
2023/12/13 11:47:39;;;;;;;3.53;1.43;;;9.50;99.90;;;;;;5092144;28;20051;-53
2023/12/13 11:50:07;;;;;;;5.27;1.60;;;9.40;99.90;;;;;;5092118;28;20043;-54
2023/12/13 11:52:32;;;;;;;5.47;2.10;;;9.30;99.90;;;;;;5092022;28;20058;-56
2023/12/13 11:55:00;;;;;;;4.57;1.33;;;9.10;99.90;;;;;;5092129;28;20287;-53
2023/12/13 11:57:25;;;;;;;3.13;1.40;;;9.10;99.90;;;;;;5092252;28;20396;-52
2023/12/13 11:59:51;;;;;;;5.17;1.57;;;9.10;99.90;;;;;;5092067;28;20036;-54
2023/12/13 12:02:17;;;;;;;3.10;1.20;;;9.10;99.90;;;;;;5092060;28;20028;-54
2023/12/13 12:04:44;;;;;;;2.60;1.03;;;9.00;99.90;;;;;;5092026;28;20456;-54
2023/12/13 12:07:14;;;;;;;2.87;0.93;;;9.00;99.90;;;;;;5091928;28;20069;-53
2023/12/13 12:09:40;;;;;;;1.87;0.90;;;8.90;99.90;;;;;;5091880;28;20028;-53
2023/12/13 12:12:08;;;;;;;4.00;1.30;;;8.80;99.90;;;;;;5092004;28;20032;-53
2023/12/13 12:14:34;;;;;;;3.40;1.50;;;8.80;99.90;;;;;;5092097;28;20483;-54
2023/12/13 12:17:01;;;;;;;2.53;1.10;;;8.80;99.90;;;;;;5091878;28;20062;-54
2023/12/13 12:19:29;;;;;;;2.50;1.17;;;8.80;99.90;;;;;;5091809;28;20490;-53
2023/12/13 12:21:55;;;;;;;3.47;1.35;;;8.80;99.90;;;;;;5092222;28;20032;-53
2023/12/13 12:24:27;;;;;;;3.10;1.30;;;8.80;99.90;;;;;;5091528;28;20028;-54
2023/12/13 12:26:54;;;;;;;3.93;1.30;;;8.80;99.90;;;;;;5091796;28;20046;-55
2023/12/13 12:29:20;;;;;;;0.53;0.47;;;8.80;99.90;;;;;;5091817;28;20433;-54
2023/12/13 12:31:46;;;;;;;3.90;1.00;;;8.70;99.90;;;;;;5091683;28;20389;-53
2023/12/13 12:34:12;;;;;;;2.90;0.73;;;8.60;99.90;;;;;;5091816;28;20109;-51
2023/12/13 12:36:38;;;;;;;1.30;0.63;;;8.60;99.90;;;;;;5091646;28;20020;-54
2023/12/13 12:39:04;;;;;;;2.10;0.80;;;8.60;99.90;;;;;;5091432;28;20115;-54
2023/12/13 12:41:34;;;;;;;4.53;0.80;;;8.60;99.90;;;;;;5091664;28;20047;-54
2023/12/13 12:44:00;;;;;;;4.00;1.00;;;8.70;99.90;;;;;;5091567;28;20056;-53
2023/12/13 12:46:26;;;;;;;3.60;1.10;;;8.80;99.90;;;;;;5091333;28;20032;-53
2023/12/13 12:48:51;;;;;;;3.33;1.07;;;8.90;99.90;;;;;;5091597;28;20024;-53
2023/12/13 12:51:17;;;;;;;2.27;0.80;;;9.20;99.90;;;;;;5091577;28;20024;-50
2023/12/13 12:53:43;;;;;;;1.90;1.03;;;9.20;99.90;;;;;;5091483;28;20448;-55